createdAt,value
2023-02-11T00:00:41.918Z,0.10
2023-02-11T00:03:08.974Z,0.10
2023-02-11T00:05:35.669Z,0.00
2023-02-11T00:08:02.440Z,0.00
2023-02-11T00:10:29.101Z,0.00
2023-02-11T00:12:56.453Z,0.00
2023-02-11T00:15:23.169Z,0.00
2023-02-11T00:17:49.851Z,0.00
2023-02-11T00:20:16.603Z,0.00
2023-02-11T00:22:43.691Z,0.00
2023-02-11T00:25:10.455Z,0.00
2023-02-11T00:27:37.789Z,0.00
2023-02-11T00:30:05.393Z,-0.10
2023-02-11T00:32:32.541Z,-0.10
2023-02-11T00:34:59.244Z,-0.10
2023-02-11T00:37:25.922Z,-0.10
2023-02-11T00:39:52.805Z,-0.10
2023-02-11T00:42:19.520Z,-0.10
2023-02-11T00:44:46.143Z,-0.10
2023-02-11T00:47:12.845Z,-0.10
2023-02-11T00:49:40.425Z,-0.10
2023-02-11T00:52:07.179Z,-0.10
2023-02-11T00:54:33.827Z,-0.10
2023-02-11T00:57:00.472Z,-0.10
2023-02-11T00:59:27.229Z,-0.20
2023-02-11T01:01:54.045Z,-0.20
2023-02-11T01:04:20.908Z,-0.20
2023-02-11T01:06:47.645Z,-0.10
2023-02-11T01:09:14.290Z,-0.20
2023-02-11T01:11:41.148Z,-0.20
2023-02-11T01:14:07.836Z,-0.20
2023-02-11T01:16:34.629Z,-0.20
2023-02-11T01:19:01.335Z,-0.20
2023-02-11T01:21:28.081Z,-0.20
2023-02-11T01:23:54.712Z,-0.20
2023-02-11T01:26:21.535Z,-0.20
2023-02-11T01:28:48.316Z,-0.20
2023-02-11T01:31:15.176Z,-0.30
2023-02-11T01:33:42.067Z,-0.30
2023-02-11T01:36:08.973Z,-0.30
2023-02-11T01:38:35.735Z,-0.30
2023-02-11T01:41:06.181Z,-0.30
2023-02-11T01:43:37.501Z,-0.30
2023-02-11T01:46:04.165Z,-0.30
2023-02-11T01:48:41.169Z,-0.30
2023-02-11T01:51:30.959Z,-0.30
2023-02-11T01:54:16.703Z,-0.30
2023-02-11T01:57:05.832Z,-0.40
2023-02-11T02:00:00.207Z,-0.40
2023-02-11T02:02:37.428Z,-0.40
2023-02-11T02:05:16.487Z,-0.40
2023-02-11T02:07:52.658Z,-0.40
2023-02-11T02:10:22.732Z,-0.40
2023-02-11T02:12:49.521Z,-0.50
2023-02-11T02:15:27.023Z,-0.40
2023-02-11T02:18:17.662Z,-0.50
2023-02-11T02:21:03.296Z,-0.50
2023-02-11T02:23:47.309Z,-0.50
2023-02-11T02:26:22.503Z,-0.50
2023-02-11T02:29:10.831Z,-0.50
2023-02-11T02:31:47.237Z,-0.50
2023-02-11T02:34:33.110Z,-0.50
2023-02-11T02:37:15.155Z,-0.50
2023-02-11T02:39:42.093Z,-0.50
2023-02-11T02:42:09.194Z,-0.50
2023-02-11T02:44:35.867Z,-0.60
2023-02-11T02:47:02.634Z,-0.60
2023-02-11T02:49:29.459Z,-0.60
2023-02-11T02:52:37.972Z,-0.60
2023-02-11T02:55:24.863Z,-0.60
2023-02-11T02:58:10.161Z,-0.60
2023-02-11T03:01:08.373Z,-0.60
2023-02-11T03:04:03.316Z,-0.60
2023-02-11T03:06:57.580Z,-0.60
2023-02-11T03:09:42.438Z,-0.60
2023-02-11T03:12:12.535Z,-0.60
2023-02-11T03:14:41.297Z,-0.60
2023-02-11T03:17:10.157Z,-0.60
2023-02-11T03:19:41.174Z,-0.60
2023-02-11T03:22:33.227Z,-0.60
2023-02-11T03:25:01.598Z,-0.60
2023-02-11T03:27:45.951Z,-0.60
2023-02-11T03:30:22.011Z,-0.60
2023-02-11T03:32:52.460Z,-0.60
2023-02-11T03:35:27.178Z,-0.60
2023-02-11T03:38:12.426Z,-0.70
2023-02-11T03:40:41.284Z,-0.70
2023-02-11T03:43:19.853Z,-0.70
2023-02-11T03:45:48.583Z,-0.70
2023-02-11T03:48:31.797Z,-0.70
2023-02-11T03:51:01.228Z,-0.70
2023-02-11T03:53:27.928Z,-0.70
2023-02-11T03:55:56.543Z,-0.70
2023-02-11T03:58:23.207Z,-0.70
2023-02-11T04:00:49.949Z,-0.70
2023-02-11T04:03:16.707Z,-0.70
2023-02-11T04:05:43.414Z,-0.70
2023-02-11T04:08:10.214Z,-0.70
2023-02-11T04:10:37.280Z,-0.70
2023-02-11T04:13:03.953Z,-0.70
2023-02-11T04:15:30.633Z,-0.70
2023-02-11T04:17:57.239Z,-0.70
2023-02-11T04:20:24.058Z,-0.70
2023-02-11T04:22:50.680Z,-0.70
2023-02-11T04:25:17.521Z,-0.70
2023-02-11T04:27:44.174Z,-0.70
2023-02-11T04:30:11.342Z,-0.70
2023-02-11T04:32:38.001Z,-0.70
2023-02-11T04:35:05.114Z,-0.70
2023-02-11T04:37:31.775Z,-0.70
2023-02-11T04:39:58.450Z,-0.80
2023-02-11T04:42:25.149Z,-0.70
2023-02-11T04:44:51.793Z,-0.70
2023-02-11T04:47:18.454Z,-0.80
2023-02-11T04:49:45.091Z,-0.70
2023-02-11T04:52:11.804Z,-0.70
2023-02-11T04:54:38.634Z,-0.80
2023-02-11T04:57:05.463Z,-0.80
2023-02-11T04:59:32.171Z,-0.80
2023-02-11T05:01:58.855Z,-0.80
2023-02-11T05:04:25.562Z,-0.80
2023-02-11T05:06:52.261Z,-0.80
2023-02-11T05:09:19.072Z,-0.80
2023-02-11T05:11:45.811Z,-0.80
2023-02-11T05:14:12.593Z,-0.90
2023-02-11T05:16:39.372Z,-1.00
2023-02-11T05:19:06.184Z,-0.90
2023-02-11T05:21:32.999Z,-1.00
2023-02-11T05:23:59.661Z,-1.00
2023-02-11T05:26:26.757Z,-1.00
2023-02-11T05:28:53.428Z,-0.90
2023-02-11T05:31:20.163Z,-0.90
2023-02-11T05:33:46.794Z,-0.90
2023-02-11T05:36:13.722Z,-0.90
2023-02-11T05:38:42.419Z,-0.90
2023-02-11T05:41:09.522Z,-0.90
2023-02-11T05:43:36.708Z,-0.90
2023-02-11T05:46:04.735Z,-0.90
2023-02-11T05:48:31.871Z,-0.90
2023-02-11T05:50:58.633Z,-0.90
2023-02-11T05:53:25.431Z,-0.90
2023-02-11T05:55:52.448Z,-0.90
2023-02-11T05:58:19.296Z,-0.90
2023-02-11T06:00:45.966Z,-0.90
2023-02-11T06:03:12.786Z,-0.90
2023-02-11T06:05:39.529Z,-1.00
2023-02-11T06:08:06.153Z,-0.90
2023-02-11T06:10:32.827Z,-0.90
2023-02-11T06:12:59.478Z,-1.00
2023-02-11T06:15:26.312Z,-1.00
2023-02-11T06:17:53.107Z,-1.00
2023-02-11T06:20:20.233Z,-0.90
2023-02-11T06:22:47.010Z,-0.90
2023-02-11T06:25:14.990Z,-0.90
2023-02-11T06:27:41.708Z,-0.90
2023-02-11T06:30:09.736Z,-0.90
2023-02-11T06:32:43.732Z,-0.90
2023-02-11T06:35:12.258Z,-0.90
2023-02-11T06:37:39.953Z,-0.90
2023-02-11T06:40:06.993Z,-1.00
2023-02-11T06:42:34.561Z,-1.00
2023-02-11T06:45:01.303Z,-1.00
2023-02-11T06:47:27.996Z,-1.00
2023-02-11T06:49:54.627Z,-1.00
2023-02-11T06:52:21.329Z,-1.00
2023-02-11T06:54:48.044Z,-1.00
2023-02-11T06:57:14.705Z,-1.00
2023-02-11T06:59:41.522Z,-1.00
2023-02-11T07:02:10.483Z,-1.00
2023-02-11T07:04:37.262Z,-1.00
2023-02-11T07:07:03.962Z,-1.00
2023-02-11T07:09:30.675Z,-1.00
2023-02-11T07:11:57.352Z,-1.00
2023-02-11T07:14:24.056Z,-1.00
2023-02-11T07:16:50.709Z,-1.00
2023-02-11T07:19:17.624Z,-1.00
2023-02-11T07:21:44.262Z,-1.00
2023-02-11T07:24:11.495Z,-1.00
2023-02-11T07:26:38.389Z,-1.00
2023-02-11T07:29:05.318Z,-1.00
2023-02-11T07:31:32.559Z,-1.00
2023-02-11T07:34:03.351Z,-1.00
2023-02-11T07:36:31.981Z,-0.90
2023-02-11T07:39:00.248Z,-0.90
2023-02-11T07:41:27.373Z,-0.90
2023-02-11T07:43:54.636Z,-0.80
2023-02-11T07:46:24.502Z,-0.80
2023-02-11T07:48:51.931Z,-0.70
2023-02-11T07:51:20.018Z,-0.60
2023-02-11T07:53:47.212Z,-0.50
2023-02-11T07:56:15.330Z,-0.40
2023-02-11T07:58:43.140Z,-0.30
2023-02-11T08:01:13.358Z,-0.30
2023-02-11T08:03:41.958Z,-0.20
2023-02-11T08:06:14.288Z,-0.10
2023-02-11T08:08:41.463Z,-0.10
2023-02-11T08:11:10.474Z,-0.10
2023-02-11T08:13:37.536Z,-0.10
2023-02-11T08:16:05.221Z,0.00
2023-02-11T08:18:33.036Z,0.00
2023-02-11T08:21:06.979Z,0.10
2023-02-11T08:23:34.076Z,0.10
2023-02-11T08:26:05.065Z,0.20
2023-02-11T08:28:31.846Z,0.30
2023-02-11T08:30:58.639Z,0.30
2023-02-11T08:33:25.470Z,0.40
2023-02-11T08:35:52.110Z,0.50
2023-02-11T08:38:18.771Z,0.50
2023-02-11T08:40:45.404Z,0.60
2023-02-11T08:43:12.099Z,0.70
2023-02-11T08:45:38.810Z,0.80
2023-02-11T08:48:05.613Z,0.80
2023-02-11T08:50:32.283Z,0.90
2023-02-11T08:52:59.001Z,1.00
2023-02-11T08:55:25.644Z,1.10
2023-02-11T08:57:52.278Z,1.20
2023-02-11T09:00:19.349Z,1.30
2023-02-11T09:02:46.032Z,1.30
2023-02-11T09:05:12.990Z,1.40
2023-02-11T09:07:39.669Z,1.40
2023-02-11T09:10:06.910Z,1.40
2023-02-11T09:12:33.562Z,1.40
2023-02-11T09:15:00.194Z,1.40
2023-02-11T09:17:26.886Z,1.40
2023-02-11T09:19:53.514Z,1.40
2023-02-11T09:22:20.147Z,1.40
2023-02-11T09:24:46.744Z,1.40
2023-02-11T09:27:13.397Z,1.40
2023-02-11T09:29:40.065Z,1.40
2023-02-11T09:32:09.662Z,1.40
2023-02-11T09:34:36.799Z,1.40
2023-02-11T09:37:03.497Z,1.40
2023-02-11T09:39:30.225Z,1.40
2023-02-11T09:42:07.811Z,1.40
2023-02-11T09:44:36.229Z,1.40
2023-02-11T09:47:26.921Z,1.50
2023-02-11T09:50:02.293Z,1.50
2023-02-11T09:52:41.702Z,1.50
2023-02-11T09:55:29.167Z,1.50
2023-02-11T09:57:57.509Z,1.50
2023-02-11T10:00:32.223Z,1.50
2023-02-11T10:03:26.496Z,1.50
2023-02-11T10:06:30.820Z,1.60
2023-02-11T10:09:19.015Z,1.60
2023-02-11T10:11:57.562Z,1.70
2023-02-11T10:14:54.539Z,1.80
2023-02-11T10:17:46.798Z,1.90
2023-02-11T10:20:42.361Z,1.90
2023-02-11T10:23:11.104Z,2.00
2023-02-11T10:25:59.477Z,2.00
2023-02-11T10:28:37.002Z,2.10
2023-02-11T10:31:15.026Z,2.10
2023-02-11T10:34:01.868Z,2.20
2023-02-11T10:36:33.165Z,2.30
2023-02-11T10:39:14.577Z,2.40
2023-02-11T10:42:06.746Z,2.40
2023-02-11T10:44:48.800Z,2.50
2023-02-11T10:47:23.540Z,2.60
2023-02-11T10:49:50.276Z,2.60
2023-02-11T10:52:24.044Z,2.70
2023-02-11T10:54:59.286Z,2.80
2023-02-11T10:57:33.873Z,2.80
2023-02-11T11:00:26.838Z,2.90
2023-02-11T11:02:57.308Z,2.90
2023-02-11T11:05:32.838Z,3.00
2023-02-11T11:08:08.963Z,3.00
2023-02-11T11:10:43.737Z,3.10
2023-02-11T11:13:27.133Z,3.10
2023-02-11T11:16:27.278Z,3.10
2023-02-11T11:19:13.689Z,3.20
2023-02-11T11:21:47.174Z,3.20
2023-02-11T11:24:21.416Z,3.20
2023-02-11T11:26:53.883Z,3.30
2023-02-11T11:29:42.858Z,3.30
2023-02-11T11:32:37.142Z,3.30
2023-02-11T11:35:09.590Z,3.40
2023-02-11T11:37:38.125Z,3.40
2023-02-11T11:40:16.823Z,3.40
2023-02-11T11:42:43.788Z,3.50
2023-02-11T11:45:17.596Z,3.50
2023-02-11T11:48:00.535Z,3.50
2023-02-11T11:50:40.018Z,3.60
2023-02-11T11:53:30.154Z,3.60
2023-02-11T11:56:21.714Z,3.60
2023-02-11T11:58:50.120Z,3.70
2023-02-11T12:01:43.770Z,3.70
2023-02-11T12:04:28.410Z,3.80
2023-02-11T12:07:14.213Z,3.90
2023-02-11T12:09:59.573Z,3.90
2023-02-11T12:12:34.139Z,4.00
2023-02-11T12:15:15.883Z,4.00
2023-02-11T12:17:51.371Z,4.00
2023-02-11T12:20:56.031Z,4.10
2023-02-11T12:23:55.608Z,4.10
2023-02-11T12:26:26.762Z,4.20
2023-02-11T12:29:19.895Z,4.20
2023-02-11T12:32:21.444Z,4.20
2023-02-11T12:35:05.899Z,4.30
2023-02-11T12:37:50.739Z,4.30
2023-02-11T12:40:33.401Z,4.40
2023-02-11T12:43:17.719Z,4.40
2023-02-11T12:45:47.427Z,4.50
2023-02-11T12:48:35.636Z,4.50
2023-02-11T12:51:29.152Z,4.60
2023-02-11T12:54:13.988Z,4.60
2023-02-11T12:57:06.667Z,4.60
2023-02-11T12:59:49.972Z,4.70
2023-02-11T13:02:28.396Z,4.70
2023-02-11T13:05:00.117Z,4.70
2023-02-11T13:07:37.169Z,4.80
2023-02-11T13:10:32.038Z,4.80
2023-02-11T13:13:18.622Z,4.90
2023-02-11T13:16:12.483Z,4.90
2023-02-11T13:19:20.428Z,5.00
2023-02-11T13:21:56.189Z,5.10
2023-02-11T13:24:44.608Z,5.20
2023-02-11T13:27:36.026Z,5.30
2023-02-11T13:30:28.079Z,5.30
2023-02-11T13:32:54.719Z,5.30
2023-02-11T13:35:29.656Z,5.30
2023-02-11T13:37:57.732Z,5.40
2023-02-11T13:40:37.193Z,5.30
2023-02-11T13:43:07.116Z,5.20
2023-02-11T13:45:44.411Z,5.20
2023-02-11T13:48:31.482Z,5.30
2023-02-11T13:51:02.252Z,5.30
2023-02-11T13:53:30.194Z,5.30
2023-02-11T13:56:23.221Z,5.40
2023-02-11T13:58:51.349Z,5.40
2023-02-11T14:02:09.680Z,5.30
2023-02-11T14:04:55.374Z,5.30
2023-02-11T14:07:53.267Z,5.30
2023-02-11T14:10:41.634Z,5.30
2023-02-11T14:13:32.546Z,5.30
2023-02-11T14:16:20.352Z,5.40
2023-02-11T14:18:55.070Z,5.40
2023-02-11T14:21:27.523Z,5.40
2023-02-11T14:24:14.416Z,5.40
2023-02-11T14:26:52.231Z,5.40
2023-02-11T14:29:23.015Z,5.50
2023-02-11T14:32:06.023Z,5.50
2023-02-11T14:34:51.574Z,5.50
2023-02-11T14:37:26.888Z,5.50
2023-02-11T14:40:16.264Z,5.50
2023-02-11T14:42:43.116Z,5.50
2023-02-11T14:45:15.117Z,5.50
2023-02-11T14:47:58.074Z,5.50
2023-02-11T14:50:28.726Z,5.50
2023-02-11T14:52:58.791Z,5.50
2023-02-11T14:55:41.494Z,5.50
2023-02-11T14:58:16.832Z,5.60
2023-02-11T15:00:51.031Z,5.50
2023-02-11T15:03:25.206Z,5.50
2023-02-11T15:06:14.796Z,5.50
2023-02-11T15:08:46.808Z,5.60
2023-02-11T15:11:15.849Z,5.50
2023-02-11T15:13:47.576Z,5.50
2023-02-11T15:16:18.609Z,5.60
2023-02-11T15:19:07.359Z,5.60
2023-02-11T15:21:35.973Z,5.60
2023-02-11T15:24:06.413Z,5.60
2023-02-11T15:26:33.486Z,5.60
2023-02-11T15:29:00.629Z,5.60
2023-02-11T15:31:28.477Z,5.60
2023-02-11T15:33:55.333Z,5.60
2023-02-11T15:36:28.606Z,5.70
2023-02-11T15:39:34.270Z,5.70
2023-02-11T15:42:27.100Z,5.70
2023-02-11T15:45:14.539Z,5.70
2023-02-11T15:47:48.514Z,5.70
2023-02-11T15:50:30.293Z,5.70
2023-02-11T15:53:21.920Z,5.70
2023-02-11T15:55:51.423Z,5.70
2023-02-11T15:58:18.430Z,5.70
2023-02-11T16:00:54.684Z,5.60
2023-02-11T16:03:28.692Z,5.70
2023-02-11T16:05:56.508Z,5.60
2023-02-11T16:08:29.934Z,5.60
2023-02-11T16:11:02.465Z,5.70
2023-02-11T16:13:35.362Z,5.60
2023-02-11T16:16:04.652Z,5.60
2023-02-11T16:18:39.623Z,5.60
2023-02-11T16:21:14.723Z,5.60
2023-02-11T16:23:42.507Z,5.60
2023-02-11T16:26:32.994Z,5.50
2023-02-11T16:29:11.354Z,5.50
2023-02-11T16:31:40.992Z,5.40
2023-02-11T16:34:18.734Z,5.40
2023-02-11T16:36:46.739Z,5.40
2023-02-11T16:39:13.754Z,5.30
2023-02-11T16:41:44.110Z,5.30
2023-02-11T16:44:10.776Z,5.20
2023-02-11T16:46:37.811Z,5.20
2023-02-11T16:49:32.286Z,5.10
2023-02-11T16:52:03.534Z,5.00
2023-02-11T16:54:30.288Z,5.00
2023-02-11T16:56:57.412Z,4.90
2023-02-11T16:59:24.293Z,4.80
2023-02-11T17:01:53.086Z,4.70
2023-02-11T17:04:28.400Z,4.70
2023-02-11T17:06:58.165Z,4.60
2023-02-11T17:09:30.332Z,4.60
2023-02-11T17:11:57.671Z,4.50
2023-02-11T17:14:24.637Z,4.50
2023-02-11T17:16:51.321Z,4.40
2023-02-11T17:19:22.423Z,4.30
2023-02-11T17:21:52.166Z,4.30
2023-02-11T17:24:20.292Z,4.30
2023-02-11T17:26:48.119Z,4.20
2023-02-11T17:29:17.549Z,4.10
2023-02-11T17:31:44.611Z,4.10
2023-02-11T17:34:11.701Z,4.00
2023-02-11T17:36:39.237Z,3.90
2023-02-11T17:39:08.261Z,3.90
2023-02-11T17:41:36.117Z,3.90
2023-02-11T17:44:02.801Z,3.80
2023-02-11T17:46:29.570Z,3.80
2023-02-11T17:48:58.819Z,3.70
2023-02-11T17:51:29.469Z,3.70
2023-02-11T17:53:59.964Z,3.60
2023-02-11T17:56:26.760Z,3.60
2023-02-11T17:58:53.468Z,3.60
2023-02-11T18:01:20.567Z,3.50
2023-02-11T18:03:47.705Z,3.50
2023-02-11T18:06:14.486Z,3.50
2023-02-11T18:08:43.010Z,3.50
2023-02-11T18:11:11.608Z,3.40
2023-02-11T18:13:38.379Z,3.40
2023-02-11T18:16:06.291Z,3.40
2023-02-11T18:18:33.098Z,3.30
2023-02-11T18:21:03.856Z,3.30
2023-02-11T18:23:30.855Z,3.30
2023-02-11T18:25:57.718Z,3.20
2023-02-11T18:28:24.402Z,3.20
2023-02-11T18:31:00.353Z,3.20
2023-02-11T18:33:28.234Z,3.10
2023-02-11T18:35:55.124Z,3.10
2023-02-11T18:38:22.829Z,3.00
2023-02-11T18:40:52.478Z,3.00
2023-02-11T18:43:22.676Z,3.00
2023-02-11T18:45:49.935Z,3.00
2023-02-11T18:48:17.805Z,3.00
2023-02-11T18:50:46.063Z,3.00
2023-02-11T18:53:14.005Z,3.00
2023-02-11T18:55:42.325Z,3.00
2023-02-11T18:58:09.326Z,2.90
2023-02-11T19:00:37.259Z,2.90
2023-02-11T19:03:04.045Z,2.90
2023-02-11T19:05:33.406Z,2.90
2023-02-11T19:08:00.922Z,2.80
2023-02-11T19:10:28.364Z,2.80
2023-02-11T19:12:56.442Z,2.80
2023-02-11T19:15:23.153Z,2.70
2023-02-11T19:17:49.933Z,2.70
2023-02-11T19:20:17.067Z,2.70
2023-02-11T19:22:44.374Z,2.70
2023-02-11T19:25:12.168Z,2.60
2023-02-11T19:27:41.751Z,2.60
2023-02-11T19:30:10.467Z,2.60
2023-02-11T19:32:37.146Z,2.50
2023-02-11T19:35:03.998Z,2.50
2023-02-11T19:37:30.721Z,2.50
2023-02-11T19:39:57.390Z,2.50
2023-02-11T19:42:27.136Z,2.50
2023-02-11T19:44:54.043Z,2.40
2023-02-11T19:47:27.495Z,2.40
2023-02-11T19:49:54.643Z,2.40
2023-02-11T19:52:21.442Z,2.40
2023-02-11T19:54:48.298Z,2.40
2023-02-11T19:57:15.114Z,2.30
2023-02-11T19:59:41.876Z,2.30
2023-02-11T20:02:11.336Z,2.30
2023-02-11T20:04:38.074Z,2.20
2023-02-11T20:07:04.831Z,2.20
2023-02-11T20:09:31.805Z,2.20
2023-02-11T20:11:58.840Z,2.20
2023-02-11T20:14:27.821Z,2.20
2023-02-11T20:16:54.729Z,2.10
2023-02-11T20:19:22.292Z,2.10
2023-02-11T20:21:52.242Z,2.10
2023-02-11T20:24:19.525Z,2.10
2023-02-11T20:26:48.348Z,2.00
2023-02-11T20:29:17.087Z,2.00
2023-02-11T20:31:44.067Z,2.00
2023-02-11T20:34:12.079Z,2.00
2023-02-11T20:36:40.269Z,2.00
2023-02-11T20:39:07.550Z,1.90
2023-02-11T20:41:36.507Z,1.90
2023-02-11T20:44:06.812Z,1.90
2023-02-11T20:46:34.479Z,1.90
2023-02-11T20:49:01.976Z,1.90
2023-02-11T20:51:32.046Z,1.90
2023-02-11T20:53:59.101Z,1.80
2023-02-11T20:56:31.332Z,1.80
2023-02-11T20:58:59.040Z,1.80
2023-02-11T21:01:28.727Z,1.80
2023-02-11T21:04:00.323Z,1.80
2023-02-11T21:06:31.379Z,1.80
2023-02-11T21:08:58.036Z,1.80
2023-02-11T21:11:24.793Z,1.70
2023-02-11T21:13:51.503Z,1.70
2023-02-11T21:16:23.122Z,1.70
2023-02-11T21:18:50.955Z,1.70
2023-02-11T21:21:18.777Z,1.70
2023-02-11T21:23:46.191Z,1.60
2023-02-11T21:26:15.765Z,1.60
2023-02-11T21:28:42.589Z,1.60
2023-02-11T21:31:21.101Z,1.60
2023-02-11T21:33:49.255Z,1.60
2023-02-11T21:36:15.970Z,1.60
2023-02-11T21:38:42.638Z,1.60
2023-02-11T21:41:09.699Z,1.60
2023-02-11T21:43:36.424Z,1.60
2023-02-11T21:46:08.867Z,1.60
2023-02-11T21:48:35.691Z,1.60
2023-02-11T21:51:05.840Z,1.60
2023-02-11T21:53:32.445Z,1.60
2023-02-11T21:56:13.142Z,1.60
2023-02-11T21:58:39.813Z,1.60
2023-02-11T22:01:13.642Z,1.60
2023-02-11T22:03:41.143Z,1.50
2023-02-11T22:06:09.750Z,1.50
2023-02-11T22:08:37.127Z,1.50
2023-02-11T22:11:06.429Z,1.50
2023-02-11T22:13:33.953Z,1.50
2023-02-11T22:16:03.693Z,1.50
2023-02-11T22:18:30.620Z,1.50
2023-02-11T22:21:02.420Z,1.50
2023-02-11T22:23:29.713Z,1.50
2023-02-11T22:25:56.968Z,1.50
2023-02-11T22:28:25.433Z,1.50
2023-02-11T22:30:54.684Z,1.50
2023-02-11T22:33:22.424Z,1.40
2023-02-11T22:35:49.134Z,1.40
2023-02-11T22:38:15.770Z,1.40
2023-02-11T22:40:43.515Z,1.40
2023-02-11T22:43:10.660Z,1.40
2023-02-11T22:45:37.313Z,1.40
2023-02-11T22:48:04.265Z,1.40
2023-02-11T22:50:30.928Z,1.40
2023-02-11T22:52:57.616Z,1.30
2023-02-11T22:55:24.326Z,1.30
2023-02-11T22:57:50.984Z,1.30
2023-02-11T23:00:19.362Z,1.30
2023-02-11T23:02:46.429Z,1.30
2023-02-11T23:05:13.228Z,1.30
2023-02-11T23:07:39.865Z,1.30
2023-02-11T23:10:07.137Z,1.30
2023-02-11T23:12:33.921Z,1.30
2023-02-11T23:15:02.617Z,1.30
2023-02-11T23:17:30.741Z,1.20
2023-02-11T23:19:57.443Z,1.20
2023-02-11T23:22:24.102Z,1.20
2023-02-11T23:24:50.814Z,1.20
2023-02-11T23:27:17.648Z,1.20
2023-02-11T23:29:44.393Z,1.20
2023-02-11T23:32:11.505Z,1.10
2023-02-11T23:34:38.186Z,1.10
2023-02-11T23:37:04.851Z,1.10
2023-02-11T23:39:31.610Z,1.10
2023-02-11T23:41:59.539Z,1.10
2023-02-11T23:44:27.220Z,1.10
2023-02-11T23:46:54.316Z,1.10
2023-02-11T23:49:20.947Z,1.10
2023-02-11T23:51:47.677Z,1.10
2023-02-11T23:54:15.002Z,1.00
2023-02-11T23:56:45.125Z,1.00
2023-02-11T23:59:12.214Z,1.00
